createdAt,value
2023-04-15T00:01:37.559Z,10.40
2023-04-15T00:04:05.099Z,10.40
2023-04-15T00:06:32.085Z,10.30
2023-04-15T00:08:59.235Z,10.30
2023-04-15T00:11:26.337Z,10.20
2023-04-15T00:13:53.203Z,10.30
2023-04-15T00:16:20.082Z,10.30
2023-04-15T00:18:46.886Z,10.30
2023-04-15T00:21:13.742Z,10.20
2023-04-15T00:23:40.659Z,10.10
2023-04-15T00:26:07.584Z,10.00
2023-04-15T00:28:34.445Z,9.90
2023-04-15T00:31:01.456Z,9.90
2023-04-15T00:33:28.388Z,9.90
2023-04-15T00:35:55.266Z,9.90
2023-04-15T00:38:22.106Z,9.80
2023-04-15T00:40:49.119Z,9.90
2023-04-15T00:43:16.440Z,9.80
2023-04-15T00:45:43.507Z,9.70
2023-04-15T00:48:11.474Z,9.80
2023-04-15T00:50:38.492Z,9.80
2023-04-15T00:53:05.721Z,9.90
2023-04-15T00:55:32.625Z,9.90
2023-04-15T00:57:59.537Z,9.90
2023-04-15T01:00:26.881Z,9.90
2023-04-15T01:02:53.968Z,9.90
2023-04-15T01:05:20.939Z,9.90
2023-04-15T01:07:48.654Z,9.90
2023-04-15T01:10:15.601Z,9.90
2023-04-15T01:12:43.356Z,9.80
2023-04-15T01:15:11.180Z,9.70
2023-04-15T01:17:38.713Z,9.70
2023-04-15T01:20:06.498Z,9.60
2023-04-15T01:22:34.493Z,9.50
2023-04-15T01:25:20.227Z,9.50
2023-04-15T01:27:47.638Z,9.60
2023-04-15T01:30:14.473Z,9.50
2023-04-15T01:32:41.758Z,9.50
2023-04-15T01:35:09.067Z,9.50
2023-04-15T01:37:36.853Z,9.40
2023-04-15T01:40:03.836Z,9.40
2023-04-15T01:42:30.641Z,9.30
2023-04-15T01:44:57.448Z,9.30
2023-04-15T01:47:24.268Z,9.20
2023-04-15T01:49:51.640Z,9.20
2023-04-15T01:52:18.519Z,9.20
2023-04-15T01:54:45.746Z,9.30
2023-04-15T01:57:12.895Z,9.30
2023-04-15T01:59:39.740Z,9.30
2023-04-15T02:02:06.636Z,9.30
2023-04-15T02:04:34.203Z,9.30
2023-04-15T02:07:01.699Z,9.20
2023-04-15T02:09:28.647Z,9.20
2023-04-15T02:11:55.505Z,9.20
2023-04-15T02:14:22.439Z,9.20
2023-04-15T02:16:49.462Z,9.20
2023-04-15T02:19:16.355Z,9.20
2023-04-15T02:21:43.233Z,9.20
2023-04-15T02:24:10.407Z,9.10
2023-04-15T02:26:37.229Z,9.10
2023-04-15T02:29:04.359Z,9.10
2023-04-15T02:31:34.144Z,9.10
2023-04-15T02:34:03.030Z,9.10
2023-04-15T02:36:31.640Z,9.10
2023-04-15T02:38:58.759Z,9.00
2023-04-15T02:41:27.849Z,8.90
2023-04-15T02:43:55.144Z,8.90
2023-04-15T02:46:22.993Z,8.90
2023-04-15T02:48:50.644Z,8.90
2023-04-15T02:51:22.883Z,8.90
2023-04-15T02:53:50.606Z,8.80
2023-04-15T02:56:19.323Z,8.70
2023-04-15T02:58:46.228Z,8.70
2023-04-15T03:01:13.672Z,8.70
2023-04-15T03:03:40.729Z,8.80
2023-04-15T03:06:08.877Z,8.80
2023-04-15T03:08:36.413Z,8.80
2023-04-15T03:11:03.497Z,8.70
2023-04-15T03:13:30.500Z,8.70
2023-04-15T03:15:57.370Z,8.70
2023-04-15T03:18:24.310Z,8.80
2023-04-15T03:20:51.267Z,8.80
2023-04-15T03:23:18.302Z,8.90
2023-04-15T03:25:45.443Z,8.90
2023-04-15T03:28:12.655Z,9.00
2023-04-15T03:30:39.564Z,9.00
2023-04-15T03:33:06.993Z,9.00
2023-04-15T03:35:34.090Z,8.90
2023-04-15T03:38:01.033Z,8.90
2023-04-15T03:40:27.948Z,8.80
2023-04-15T03:42:54.806Z,8.90
2023-04-15T03:45:21.656Z,8.80
2023-04-15T03:47:49.794Z,8.80
2023-04-15T03:50:16.727Z,8.70
2023-04-15T03:52:44.691Z,8.70
2023-04-15T03:55:11.616Z,8.80
2023-04-15T03:57:39.363Z,8.80
2023-04-15T04:00:07.637Z,8.80
2023-04-15T04:02:34.791Z,8.80
2023-04-15T04:05:01.764Z,8.80
2023-04-15T04:07:28.742Z,8.80
2023-04-15T04:09:56.556Z,8.80
2023-04-15T04:12:23.378Z,8.80
2023-04-15T04:14:50.458Z,8.70
2023-04-15T04:17:17.439Z,8.70
2023-04-15T04:19:44.313Z,8.70
2023-04-15T04:22:11.367Z,8.60
2023-04-15T04:24:38.156Z,8.60
2023-04-15T04:27:05.177Z,8.50
2023-04-15T04:29:32.050Z,8.60
2023-04-15T04:31:58.928Z,8.60
2023-04-15T04:34:25.758Z,8.60
2023-04-15T04:36:52.604Z,8.60
2023-04-15T04:39:19.405Z,8.50
2023-04-15T04:41:46.222Z,8.50
2023-04-15T04:44:13.057Z,8.30
2023-04-15T04:46:39.898Z,8.30
2023-04-15T04:49:07.028Z,8.40
2023-04-15T04:51:33.985Z,8.40
2023-04-15T04:54:02.447Z,8.40
2023-04-15T04:56:30.456Z,8.40
2023-04-15T04:58:57.266Z,8.50
2023-04-15T05:01:24.268Z,8.60
2023-04-15T05:03:51.276Z,8.60
2023-04-15T05:06:18.248Z,8.70
2023-04-15T05:08:47.052Z,8.70
2023-04-15T05:11:13.939Z,8.80
2023-04-15T05:13:40.884Z,8.80
2023-04-15T05:16:08.522Z,8.90
2023-04-15T05:18:35.634Z,8.90
2023-04-15T05:21:03.035Z,8.90
2023-04-15T05:23:29.955Z,8.80
2023-04-15T05:25:56.771Z,8.90
2023-04-15T05:28:23.571Z,8.80
2023-04-15T05:30:50.662Z,8.90
2023-04-15T05:33:17.716Z,8.90
2023-04-15T05:35:44.630Z,8.90
2023-04-15T05:38:11.644Z,9.10
2023-04-15T05:40:38.487Z,9.10
2023-04-15T05:43:05.498Z,9.20
2023-04-15T05:45:32.507Z,9.20
2023-04-15T05:47:59.433Z,9.30
2023-04-15T05:50:26.355Z,9.30
2023-04-15T05:52:53.222Z,9.40
2023-04-15T05:55:20.088Z,9.40
2023-04-15T05:57:46.962Z,9.40
2023-04-15T06:00:14.486Z,9.50
2023-04-15T06:02:41.783Z,9.50
2023-04-15T06:05:10.054Z,9.60
2023-04-15T06:07:37.790Z,9.60
2023-04-15T06:10:05.836Z,9.70
2023-04-15T06:12:32.924Z,9.70
2023-04-15T06:15:00.377Z,9.70
2023-04-15T06:17:27.557Z,9.80
2023-04-15T06:19:55.831Z,9.80
2023-04-15T06:22:23.476Z,9.90
2023-04-15T06:24:51.602Z,9.90
2023-04-15T06:27:18.997Z,9.90
2023-04-15T06:29:46.256Z,9.90
2023-04-15T06:32:13.136Z,10.00
2023-04-15T06:34:39.984Z,10.00
2023-04-15T06:37:07.101Z,10.00
2023-04-15T06:39:33.924Z,10.00
2023-04-15T06:42:01.561Z,10.00
2023-04-15T06:44:29.154Z,10.00
2023-04-15T06:46:56.664Z,9.90
2023-04-15T06:49:23.542Z,9.90
2023-04-15T06:51:51.373Z,9.90
2023-04-15T06:54:18.280Z,9.90
2023-04-15T06:56:45.140Z,9.90
2023-04-15T06:59:12.919Z,9.90
2023-04-15T07:01:41.290Z,9.90
2023-04-15T07:04:08.297Z,10.00
2023-04-15T07:06:35.749Z,10.00
2023-04-15T07:09:03.676Z,10.00
2023-04-15T07:11:31.267Z,10.00
2023-04-15T07:13:58.627Z,10.00
2023-04-15T07:16:27.194Z,10.00
2023-04-15T07:18:55.978Z,10.10
2023-04-15T07:21:22.928Z,10.10
2023-04-15T07:23:49.828Z,10.10
2023-04-15T07:26:16.654Z,10.10
2023-04-15T07:28:43.545Z,10.10
2023-04-15T07:31:10.573Z,10.20
2023-04-15T07:33:37.570Z,10.20
2023-04-15T07:36:04.514Z,10.20
2023-04-15T07:38:31.310Z,10.30
2023-04-15T07:40:58.319Z,10.30
2023-04-15T07:43:25.341Z,10.40
2023-04-15T07:45:52.216Z,10.30
2023-04-15T07:48:19.150Z,10.40
2023-04-15T07:50:46.017Z,10.40
2023-04-15T07:53:13.540Z,10.40
2023-04-15T07:55:40.566Z,10.50
2023-04-15T07:58:07.375Z,10.50
2023-04-15T08:00:34.216Z,10.60
2023-04-15T08:03:01.335Z,10.60
2023-04-15T08:05:28.712Z,10.70
2023-04-15T08:07:56.186Z,10.70
2023-04-15T08:10:23.487Z,10.70
2023-04-15T08:12:50.838Z,10.70
2023-04-15T08:15:17.717Z,10.60
2023-04-15T08:17:44.618Z,10.60
2023-04-15T08:20:11.850Z,10.60
2023-04-15T08:22:39.056Z,10.70
2023-04-15T08:25:06.265Z,10.70
2023-04-15T08:27:33.087Z,10.70
2023-04-15T08:30:02.143Z,10.70
2023-04-15T08:32:30.417Z,10.60
2023-04-15T08:34:57.240Z,10.70
2023-04-15T08:37:24.149Z,10.60
2023-04-15T08:39:51.006Z,10.70
2023-04-15T08:42:23.333Z,10.70
2023-04-15T08:44:51.181Z,10.60
2023-04-15T08:47:22.624Z,10.60
2023-04-15T08:49:53.933Z,10.70
2023-04-15T08:52:21.472Z,10.60
2023-04-15T08:54:49.076Z,10.60
2023-04-15T08:57:16.310Z,10.60
2023-04-15T08:59:43.925Z,10.70
2023-04-15T09:02:12.056Z,10.70
2023-04-15T09:04:39.076Z,10.70
2023-04-15T09:07:06.134Z,10.80
2023-04-15T09:09:32.983Z,10.70
2023-04-15T09:12:01.891Z,10.70
2023-04-15T09:14:32.152Z,10.70
2023-04-15T09:17:01.014Z,10.80
2023-04-15T09:19:28.742Z,10.80
2023-04-15T09:21:59.128Z,10.80
2023-04-15T09:24:34.260Z,10.90
2023-04-15T09:27:01.120Z,10.90
2023-04-15T09:29:28.218Z,10.90
2023-04-15T09:31:55.045Z,10.90
2023-04-15T09:34:22.540Z,11.10
2023-04-15T09:36:54.955Z,11.20
2023-04-15T09:39:21.871Z,11.10
2023-04-15T09:42:08.290Z,11.20
2023-04-15T09:44:35.528Z,11.20
2023-04-15T09:47:02.465Z,11.10
2023-04-15T09:49:29.476Z,11.00
2023-04-15T09:52:06.064Z,11.00
2023-04-15T09:54:35.092Z,11.00
2023-04-15T09:57:12.303Z,11.10
2023-04-15T09:59:39.546Z,11.20
2023-04-15T10:02:09.591Z,11.20
2023-04-15T10:04:40.898Z,11.20
2023-04-15T10:07:12.683Z,11.10
2023-04-15T10:09:40.302Z,11.10
2023-04-15T10:12:07.414Z,11.00
2023-04-15T10:14:38.423Z,11.00
2023-04-15T10:17:06.082Z,11.00
2023-04-15T10:19:37.831Z,11.10
2023-04-15T10:22:05.177Z,11.20
2023-04-15T10:24:32.391Z,11.20
2023-04-15T10:27:00.264Z,11.20
2023-04-15T10:29:30.166Z,11.10
2023-04-15T10:31:58.649Z,11.10
2023-04-15T10:34:26.923Z,11.10
2023-04-15T10:36:58.452Z,11.10
2023-04-15T10:39:34.554Z,11.20
2023-04-15T10:42:15.881Z,11.30
2023-04-15T10:44:45.127Z,11.30
2023-04-15T10:47:14.273Z,11.20
2023-04-15T10:49:52.745Z,11.20
2023-04-15T10:52:24.857Z,11.10
2023-04-15T10:55:03.658Z,10.90
2023-04-15T10:57:36.270Z,10.90
2023-04-15T11:00:11.281Z,10.90
2023-04-15T11:02:57.601Z,10.90
2023-04-15T11:05:52.058Z,10.90
2023-04-15T11:08:38.976Z,10.80
2023-04-15T11:11:05.920Z,10.80
2023-04-15T11:13:34.236Z,10.70
2023-04-15T11:16:02.601Z,10.70
2023-04-15T11:18:31.358Z,10.60
2023-04-15T11:21:04.823Z,10.60
2023-04-15T11:23:34.742Z,10.60
2023-04-15T11:26:05.520Z,10.60
2023-04-15T11:28:33.343Z,10.60
2023-04-15T11:31:13.468Z,10.70
2023-04-15T11:34:01.512Z,10.70
2023-04-15T11:36:31.874Z,10.80
2023-04-15T11:39:00.257Z,10.70
2023-04-15T11:41:27.518Z,10.70
2023-04-15T11:43:54.405Z,10.70
2023-04-15T11:46:22.821Z,10.60
2023-04-15T11:48:50.269Z,10.60
2023-04-15T11:51:17.154Z,10.70
2023-04-15T11:53:50.572Z,10.80
2023-04-15T11:56:26.254Z,10.80
2023-04-15T11:58:59.319Z,10.90
2023-04-15T12:01:33.261Z,11.00
2023-04-15T12:04:01.566Z,11.00
2023-04-15T12:06:35.110Z,11.10
2023-04-15T12:09:07.062Z,11.10
2023-04-15T12:11:38.577Z,11.10
2023-04-15T12:14:31.497Z,11.10
2023-04-15T12:17:03.555Z,11.20
2023-04-15T12:19:35.398Z,11.20
2023-04-15T12:22:08.757Z,11.30
2023-04-15T12:24:36.982Z,11.40
2023-04-15T12:27:11.816Z,11.50
2023-04-15T12:29:40.415Z,11.50
2023-04-15T12:32:15.466Z,11.60
2023-04-15T12:34:42.346Z,11.60
2023-04-15T12:37:11.340Z,11.60
2023-04-15T12:39:40.629Z,11.60
2023-04-15T12:42:08.893Z,11.50
2023-04-15T12:44:36.690Z,11.40
2023-04-15T12:47:04.330Z,11.30
2023-04-15T12:49:32.823Z,11.30
2023-04-15T12:52:02.237Z,11.20
2023-04-15T12:54:33.107Z,11.20
2023-04-15T12:57:00.961Z,11.20
2023-04-15T12:59:28.462Z,11.30
2023-04-15T13:01:55.554Z,11.10
2023-04-15T13:04:22.563Z,11.10
2023-04-15T13:06:49.857Z,11.10
2023-04-15T13:09:16.859Z,11.00
2023-04-15T13:11:43.899Z,11.10
2023-04-15T13:14:14.046Z,11.10
2023-04-15T13:16:41.552Z,11.30
2023-04-15T13:19:08.679Z,11.30
2023-04-15T13:21:36.380Z,11.30
2023-04-15T13:24:04.529Z,11.30
2023-04-15T13:26:31.974Z,11.30
2023-04-15T13:28:59.457Z,11.20
2023-04-15T13:31:27.253Z,11.20
2023-04-15T13:33:54.217Z,11.10
2023-04-15T13:36:21.184Z,11.20
2023-04-15T13:38:50.934Z,11.30
2023-04-15T13:41:18.223Z,11.30
2023-04-15T13:43:45.057Z,11.20
2023-04-15T13:46:12.042Z,11.20
2023-04-15T13:48:38.957Z,11.20
2023-04-15T13:51:05.983Z,11.20
2023-04-15T13:53:37.744Z,11.20
2023-04-15T13:56:08.342Z,11.20
2023-04-15T13:58:36.157Z,11.10
2023-04-15T14:01:05.780Z,11.20
2023-04-15T14:03:34.924Z,11.20
2023-04-15T14:06:02.092Z,11.30
2023-04-15T14:08:30.415Z,11.30
2023-04-15T14:10:57.857Z,11.20
2023-04-15T14:13:25.246Z,11.10
2023-04-15T14:15:52.135Z,11.10
2023-04-15T14:18:18.988Z,11.00
2023-04-15T14:20:45.947Z,10.90
2023-04-15T14:23:13.039Z,10.90
2023-04-15T14:25:39.903Z,10.90
2023-04-15T14:28:06.831Z,10.80
2023-04-15T14:30:33.765Z,10.90
2023-04-15T14:33:00.949Z,10.80
2023-04-15T14:35:28.671Z,10.80
2023-04-15T14:37:55.894Z,10.80
2023-04-15T14:40:23.203Z,10.80
2023-04-15T14:42:50.239Z,10.90
2023-04-15T14:45:17.718Z,11.00
2023-04-15T14:47:45.043Z,10.90
2023-04-15T14:50:12.273Z,10.90
2023-04-15T14:52:39.239Z,10.80
2023-04-15T14:55:10.710Z,10.80
2023-04-15T14:57:38.497Z,10.70
2023-04-15T15:00:07.414Z,10.70
2023-04-15T15:05:05.107Z,10.60
2023-04-15T15:07:32.317Z,10.60
2023-04-15T15:09:59.121Z,10.50
2023-04-15T15:12:26.208Z,10.50
2023-04-15T15:14:53.077Z,10.50
2023-04-15T15:17:19.942Z,10.50
2023-04-15T15:19:46.729Z,10.60
2023-04-15T15:22:13.619Z,10.50
2023-04-15T15:24:40.499Z,10.50
2023-04-15T15:27:07.610Z,10.40
2023-04-15T15:29:34.483Z,10.50
2023-04-15T15:32:01.477Z,10.40
2023-04-15T15:34:28.315Z,10.40
2023-04-15T15:36:55.944Z,10.40
2023-04-15T15:39:25.909Z,10.40
2023-04-15T15:41:52.872Z,10.50
2023-04-15T15:44:19.750Z,10.40
2023-04-15T15:46:46.633Z,10.40
2023-04-15T15:49:13.521Z,10.40
2023-04-15T15:51:40.389Z,10.40
2023-04-15T15:54:07.353Z,10.40
2023-04-15T15:56:35.094Z,10.40
2023-04-15T15:59:02.047Z,10.40
2023-04-15T16:01:29.063Z,10.20
2023-04-15T16:03:56.109Z,10.40
2023-04-15T16:06:23.002Z,10.30
2023-04-15T16:08:49.893Z,10.30
2023-04-15T16:11:16.794Z,10.30
2023-04-15T16:13:43.735Z,10.20
2023-04-15T16:16:10.704Z,10.20
2023-04-15T16:18:37.577Z,10.20
2023-04-15T16:21:04.573Z,10.20
2023-04-15T16:23:31.528Z,10.20
2023-04-15T16:25:58.475Z,10.20
2023-04-15T16:28:27.139Z,10.30
2023-04-15T16:30:54.933Z,10.30
2023-04-15T16:33:21.881Z,10.30
2023-04-15T16:35:48.753Z,10.30
2023-04-15T16:38:15.639Z,10.20
2023-04-15T16:40:42.635Z,10.30
2023-04-15T16:43:11.361Z,10.20
2023-04-15T16:45:38.532Z,10.20
2023-04-15T16:48:05.883Z,10.20
2023-04-15T16:50:32.879Z,10.20
2023-04-15T16:52:59.699Z,10.20
2023-04-15T16:55:26.879Z,10.20
2023-04-15T16:58:01.506Z,10.20
2023-04-15T17:00:31.430Z,10.20
2023-04-15T17:02:59.060Z,10.20
2023-04-15T17:05:27.736Z,10.10
2023-04-15T17:07:55.176Z,10.10
2023-04-15T17:10:22.443Z,10.10
2023-04-15T17:12:52.046Z,10.10
2023-04-15T17:15:20.104Z,10.10
2023-04-15T17:17:47.050Z,10.10
2023-04-15T17:20:14.235Z,10.10
2023-04-15T17:22:41.138Z,10.00
2023-04-15T17:25:08.425Z,10.10
2023-04-15T17:27:35.607Z,10.00
2023-04-15T17:30:02.474Z,10.00
2023-04-15T17:32:31.972Z,10.00
2023-04-15T17:34:59.147Z,10.00
2023-04-15T17:37:26.774Z,10.00
2023-04-15T17:39:53.560Z,10.00
2023-04-15T17:42:21.615Z,10.00
2023-04-15T17:44:48.445Z,10.00
2023-04-15T17:47:15.553Z,9.90
2023-04-15T17:49:43.773Z,9.90
2023-04-15T17:52:10.658Z,10.00
2023-04-15T17:54:37.502Z,10.00
2023-04-15T17:57:04.504Z,10.00
2023-04-15T17:59:31.380Z,9.90
2023-04-15T18:01:58.918Z,9.90
2023-04-15T18:04:26.828Z,9.90
2023-04-15T18:06:54.191Z,9.90
2023-04-15T18:09:21.209Z,9.90
2023-04-15T18:11:48.867Z,9.90
2023-04-15T18:14:30.625Z,9.90
2023-04-15T18:17:01.423Z,9.90
2023-04-15T18:19:28.429Z,9.90
2023-04-15T18:21:55.312Z,9.90
2023-04-15T18:24:22.679Z,9.90
2023-04-15T18:26:49.673Z,9.80
2023-04-15T18:29:16.970Z,9.80
2023-04-15T18:31:44.136Z,9.90
2023-04-15T18:34:11.313Z,9.90
2023-04-15T18:36:38.190Z,9.90
2023-04-15T18:39:05.715Z,9.90
2023-04-15T18:41:32.785Z,9.90
2023-04-15T18:43:59.745Z,9.90
2023-04-15T18:46:27.671Z,9.80
2023-04-15T18:48:54.512Z,9.90
2023-04-15T18:51:21.378Z,9.90
2023-04-15T18:53:48.345Z,9.80
2023-04-15T18:56:15.494Z,9.80
2023-04-15T18:59:25.277Z,9.90
2023-04-15T19:01:31.632Z,9.90
2023-04-15T19:03:59.623Z,9.90
2023-04-15T19:06:27.284Z,9.80
2023-04-15T19:08:54.623Z,9.80
2023-04-15T19:11:21.781Z,9.90
2023-04-15T19:13:48.769Z,9.80
2023-04-15T19:16:15.744Z,9.90
2023-04-15T19:18:43.221Z,9.80
2023-04-15T19:21:14.440Z,9.80
2023-04-15T19:23:45.564Z,9.80
2023-04-15T19:26:12.569Z,9.80
2023-04-15T19:28:39.489Z,9.80
2023-04-15T19:31:06.793Z,9.80
2023-04-15T19:33:34.280Z,9.80
2023-04-15T19:36:04.069Z,9.80
2023-04-15T19:38:31.793Z,9.70
2023-04-15T19:40:59.281Z,9.80
2023-04-15T19:43:26.311Z,9.80
2023-04-15T19:45:54.784Z,9.80
2023-04-15T19:48:25.624Z,9.80
2023-04-15T19:50:52.501Z,9.80
2023-04-15T19:53:19.356Z,9.80
2023-04-15T19:55:47.194Z,9.80
2023-04-15T19:58:14.261Z,9.80
2023-04-15T20:00:41.153Z,9.80
2023-04-15T20:03:08.174Z,9.80
2023-04-15T20:05:35.578Z,9.80
2023-04-15T20:08:02.891Z,9.80
2023-04-15T20:10:31.815Z,9.80
2023-04-15T20:12:58.971Z,9.80
2023-04-15T20:15:26.082Z,9.80
2023-04-15T20:17:53.097Z,9.80
2023-04-15T20:20:20.220Z,9.80
2023-04-15T20:22:47.253Z,9.80
2023-04-15T20:25:14.306Z,9.80
2023-04-15T20:27:41.225Z,9.80
2023-04-15T20:30:08.650Z,9.80
2023-04-15T20:32:36.074Z,9.80
2023-04-15T20:35:04.499Z,9.80
2023-04-15T20:37:33.461Z,9.80
2023-04-15T20:40:01.660Z,9.80
2023-04-15T20:42:32.217Z,9.70
2023-04-15T20:44:59.182Z,9.80
2023-04-15T20:47:26.390Z,9.80
2023-04-15T20:49:53.971Z,9.80
2023-04-15T20:52:20.826Z,9.80
2023-04-15T20:54:47.695Z,9.80
2023-04-15T20:57:14.555Z,9.80
2023-04-15T20:59:41.425Z,9.80
2023-04-15T21:02:08.364Z,9.70
2023-04-15T21:04:35.887Z,9.70
2023-04-15T21:07:02.746Z,9.80
2023-04-15T21:09:29.718Z,9.80
2023-04-15T21:12:01.726Z,9.70
2023-04-15T21:14:29.366Z,9.70
2023-04-15T21:16:58.234Z,9.70
2023-04-15T21:19:25.163Z,9.70
2023-04-15T21:21:52.490Z,9.70
2023-04-15T21:24:19.347Z,9.70
2023-04-15T21:26:46.239Z,9.80
2023-04-15T21:29:13.350Z,9.80
2023-04-15T21:31:40.827Z,9.80
2023-04-15T21:34:07.755Z,9.80
2023-04-15T21:36:35.028Z,9.80
2023-04-15T21:39:01.899Z,9.90
2023-04-15T21:41:28.862Z,9.90
2023-04-15T21:43:55.836Z,9.80
2023-04-15T21:46:25.687Z,9.80
2023-04-15T21:48:59.978Z,9.80
2023-04-15T21:51:27.660Z,9.80
2023-04-15T21:53:54.562Z,9.90
2023-04-15T21:56:23.165Z,9.90
2023-04-15T21:58:50.079Z,9.90
2023-04-15T22:01:18.116Z,9.80
2023-04-15T22:03:45.170Z,9.80
2023-04-15T22:06:13.689Z,9.70
2023-04-15T22:08:54.935Z,9.70
2023-04-15T22:11:27.250Z,9.70
2023-04-15T22:13:55.174Z,9.70
2023-04-15T22:16:22.143Z,9.70
2023-04-15T22:18:49.126Z,9.80
2023-04-15T22:21:16.342Z,9.80
2023-04-15T22:23:47.214Z,9.80
2023-04-15T22:26:14.065Z,9.80
2023-04-15T22:28:40.961Z,9.80
2023-04-15T22:31:07.958Z,9.90
2023-04-15T22:33:35.204Z,9.90
2023-04-15T22:36:02.030Z,9.90
2023-04-15T22:38:28.978Z,9.90
2023-04-15T22:40:55.916Z,9.80
2023-04-15T22:43:22.895Z,9.80
2023-04-15T22:45:50.790Z,9.70
2023-04-15T22:48:18.800Z,9.80
2023-04-15T22:50:45.907Z,9.80
2023-04-15T22:53:13.197Z,9.80
2023-04-15T22:55:40.028Z,9.70
2023-04-15T22:58:06.914Z,9.80
2023-04-15T23:00:33.780Z,9.80
2023-04-15T23:03:00.901Z,9.80
2023-04-15T23:05:27.957Z,9.80
2023-04-15T23:07:54.834Z,9.80
2023-04-15T23:10:21.807Z,9.80
2023-04-15T23:12:48.777Z,9.90
2023-04-15T23:15:15.855Z,9.90
2023-04-15T23:17:43.337Z,9.90
2023-04-15T23:20:11.322Z,9.90
2023-04-15T23:22:38.783Z,9.80
2023-04-15T23:25:06.380Z,9.80
2023-04-15T23:27:33.268Z,9.80
2023-04-15T23:30:00.251Z,9.80
2023-04-15T23:32:27.411Z,9.80
2023-04-15T23:34:54.366Z,9.80
2023-04-15T23:37:21.332Z,9.80
2023-04-15T23:39:48.221Z,9.80
2023-04-15T23:42:15.122Z,9.80
2023-04-15T23:44:42.012Z,9.80
2023-04-15T23:47:08.935Z,9.80
2023-04-15T23:49:36.957Z,9.80
2023-04-15T23:52:04.199Z,9.80
2023-04-15T23:54:31.028Z,9.80
2023-04-15T23:56:57.866Z,9.80
2023-04-15T23:59:24.688Z,9.80
